Time;durP1;ratioP1;P1;durP2;ratioP2;P2;SDS_P1;SDS_P2;PMS_P1;PMS_P2;Temp;Humidity;BMP_temperature;BMP_pressure;BME280_temperature;BME280_humidity;BME280_pressure;Samples;Min_cycle;Max_cycle;Signal;HPM_P1;HPM_P2
2021/01/01 00:02:12;;;;;;;60.00;38.63;;;;;;;;;;5049606;28;20210;-79
2021/01/01 00:04:39;;;;;;;57.17;39.25;;;;;;;;;;5058153;28;20771;-78
2021/01/01 00:07:06;;;;;;;64.07;37.95;;;;;;;;;;5071169;28;20217;-77
2021/01/01 00:09:33;;;;;;;58.30;34.53;;;;;;;;;;5070949;28;20202;-79
2021/01/01 00:12:00;;;;;;;50.08;33.88;;;;;;;;;;5067122;28;20236;-78
2021/01/01 00:14:26;;;;;;;51.08;31.83;;;;;;;;;;5065397;28;20236;-78
2021/01/01 00:16:53;;;;;;;60.42;36.95;;;;;;;;;;5068052;28;20243;-79
2021/01/01 00:19:21;;;;;;;49.70;30.85;;;;;;;;;;5061154;28;20195;-78
2021/01/01 00:21:48;;;;;;;51.53;31.50;;;;;;;;;;5049022;28;20281;-79
2021/01/01 00:24:14;;;;;;;51.90;29.58;;;;;;;;;;5049548;28;20225;-80
2021/01/01 00:26:41;;;;;;;44.15;29.17;;;;;;;;;;5050355;28;20251;-79
2021/01/01 00:29:08;;;;;;;43.53;28.40;;;;;;;;;;5050683;28;20229;-79
2021/01/01 00:31:35;;;;;;;41.33;26.00;;;;;;;;;;5050988;28;20357;-77
2021/01/01 00:34:02;;;;;;;40.92;26.30;;;;;;;;;;5057446;28;20367;-77
2021/01/01 00:36:29;;;;;;;39.35;26.35;;;;;;;;;;5065191;28;20199;-79
2021/01/01 00:38:56;;;;;;;41.50;25.40;;;;;;;;;;5049511;28;20282;-81
2021/01/01 00:41:24;;;;;;;36.85;24.08;;;;;;;;;;5052246;28;20679;-81
2021/01/01 00:43:51;;;;;;;33.85;22.30;;;;;;;;;;5052247;28;20567;-80
2021/01/01 00:46:18;;;;;;;37.72;22.58;;;;;;;;;;5053065;28;20210;-79
2021/01/01 00:48:45;;;;;;;34.35;22.20;;;;;;;;;;5054696;28;20260;-80
2021/01/01 00:51:12;;;;;;;35.47;22.75;;;;;;;;;;5051732;28;20190;-80
2021/01/01 00:53:39;;;;;;;35.67;22.55;;;;;;;;;;5054157;28;20219;-80
2021/01/01 00:56:06;;;;;;;35.92;23.45;;;;;;;;;;5061274;28;20294;-79
2021/01/01 00:58:33;;;;;;;34.70;21.80;;;;;;;;;;5068409;28;20228;-78
2021/01/01 01:01:00;;;;;;;31.67;20.83;;;;;;;;;;5071422;28;20187;-78
2021/01/01 01:03:26;;;;;;;36.35;22.02;;;;;;;;;;5071830;28;20223;-79
2021/01/01 01:05:53;;;;;;;35.13;22.15;;;;;;;;;;5072316;28;20204;-79
2021/01/01 01:08:20;;;;;;;37.17;23.77;;;;;;;;;;5066877;28;20284;-78
2021/01/01 01:10:47;;;;;;;38.63;22.85;;;;;;;;;;5054007;28;20205;-81
2021/01/01 01:13:14;;;;;;;37.85;23.27;;;;;;;;;;5054230;28;20234;-80
2021/01/01 01:15:41;;;;;;;37.72;24.45;;;;;;;;;;5054332;28;20195;-78
2021/01/01 01:18:08;;;;;;;37.00;23.45;;;;;;;;;;5062129;28;20556;-77
2021/01/01 01:20:35;;;;;;;39.55;23.98;;;;;;;;;;5068742;28;20566;-78
2021/01/01 01:23:02;;;;;;;44.80;24.90;;;;;;;;;;5071308;28;20240;-78
2021/01/01 01:25:28;;;;;;;42.72;25.83;;;;;;;;;;5071652;28;20194;-78
2021/01/01 01:27:56;;;;;;;39.85;24.13;;;;;;;;;;5073145;28;20198;-78
2021/01/01 01:30:24;;;;;;;44.60;24.75;;;;;;;;;;5072151;28;20396;-80
2021/01/01 01:32:50;;;;;;;51.13;29.33;;;;;;;;;;5073910;28;20682;-78
2021/01/01 01:35:17;;;;;;;42.28;26.15;;;;;;;;;;5073803;28;20717;-77
2021/01/01 01:37:44;;;;;;;50.50;28.88;;;;;;;;;;5073507;28;20247;-78
2021/01/01 01:40:11;;;;;;;47.20;28.85;;;;;;;;;;5070842;28;20193;-76
2021/01/01 01:42:38;;;;;;;47.65;29.10;;;;;;;;;;5068076;28;20201;-76
2021/01/01 01:45:08;;;;;;;52.92;30.25;;;;;;;;;;5069552;28;20190;-79
2021/01/01 01:47:37;;;;;;;52.22;29.02;;;;;;;;;;5070904;28;20592;-77
2021/01/01 01:50:04;;;;;;;47.80;28.40;;;;;;;;;;5071433;28;20280;-77
2021/01/01 01:52:32;;;;;;;44.33;26.95;;;;;;;;;;5070322;28;20285;-77
2021/01/01 01:54:59;;;;;;;46.95;26.67;;;;;;;;;;5073379;28;20218;-77
2021/01/01 01:57:27;;;;;;;43.22;27.88;;;;;;;;;;5073248;28;20213;-76
2021/01/01 01:59:56;;;;;;;45.55;26.85;;;;;;;;;;5073145;28;20296;-81
2021/01/01 02:02:24;;;;;;;44.65;27.20;;;;;;;;;;5070044;28;20295;-81
2021/01/01 02:04:50;;;;;;;49.67;28.70;;;;;;;;;;5067103;28;20268;-79
2021/01/01 02:07:17;;;;;;;46.78;27.42;;;;;;;;;;5070472;28;20195;-80
2021/01/01 02:09:45;;;;;;;44.05;26.92;;;;;;;;;;5070719;28;20665;-80
2021/01/01 02:12:12;;;;;;;40.22;26.23;;;;;;;;;;5071096;28;20190;-79
2021/01/01 02:14:39;;;;;;;46.67;26.85;;;;;;;;;;5071041;28;20229;-79
2021/01/01 02:17:06;;;;;;;48.55;28.02;;;;;;;;;;5072580;28;20561;-79
2021/01/01 02:19:34;;;;;;;41.85;27.23;;;;;;;;;;5072746;28;20281;-78
2021/01/01 02:22:02;;;;;;;49.20;27.48;;;;;;;;;;5072806;28;20226;-77
2021/01/01 02:24:29;;;;;;;47.97;27.90;;;;;;;;;;5068270;28;20290;-78
2021/01/01 02:26:57;;;;;;;40.83;24.90;;;;;;;;;;5066427;28;20202;-77
2021/01/01 02:29:24;;;;;;;56.92;31.65;;;;;;;;;;5069738;28;20248;-77
2021/01/01 02:31:51;;;;;;;45.72;28.88;;;;;;;;;;5055481;28;20194;-77
2021/01/01 02:34:18;;;;;;;46.58;27.10;;;;;;;;;;5049605;28;20287;-77
2021/01/01 02:36:45;;;;;;;64.05;32.13;;;;;;;;;;5053231;28;20194;-77
2021/01/01 02:39:11;;;;;;;53.08;29.90;;;;;;;;;;5066728;28;20217;-79
2021/01/01 02:41:39;;;;;;;54.88;29.55;;;;;;;;;;5068209;28;20186;-78
2021/01/01 02:44:06;;;;;;;50.28;28.55;;;;;;;;;;5070127;28;20214;-75
2021/01/01 02:46:33;;;;;;;54.65;30.85;;;;;;;;;;5069883;28;20309;-77
2021/01/01 02:49:00;;;;;;;52.35;28.80;;;;;;;;;;5070313;28;20195;-78
2021/01/01 02:51:26;;;;;;;50.65;29.27;;;;;;;;;;5071623;28;20319;-76
2021/01/01 02:53:53;;;;;;;51.47;29.73;;;;;;;;;;5072133;28;20595;-77
2021/01/01 02:56:20;;;;;;;51.40;29.15;;;;;;;;;;5072074;28;20198;-76
2021/01/01 02:58:48;;;;;;;55.70;33.13;;;;;;;;;;5069845;28;20221;-79
2021/01/01 03:01:19;;;;;;;61.38;33.53;;;;;;;;;;5065924;28;20604;-77
2021/01/01 03:03:46;;;;;;;60.17;32.95;;;;;;;;;;5066679;28;20205;-77
2021/01/01 03:06:13;;;;;;;67.25;34.50;;;;;;;;;;5069510;28;20247;-79
2021/01/01 03:08:39;;;;;;;68.03;34.65;;;;;;;;;;5066194;28;20198;-79
2021/01/01 03:11:06;;;;;;;74.03;36.42;;;;;;;;;;5049757;28;20682;-80
2021/01/01 03:13:33;;;;;;;64.28;34.10;;;;;;;;;;5051165;28;20661;-79
2021/01/01 03:16:01;;;;;;;75.93;35.47;;;;;;;;;;5051707;28;20206;-76
2021/01/01 03:18:30;;;;;;;67.85;32.60;;;;;;;;;;5051640;28;20202;-77
2021/01/01 03:20:57;;;;;;;66.80;34.08;;;;;;;;;;5052330;28;20199;-77
2021/01/01 03:23:23;;;;;;;68.80;34.88;;;;;;;;;;5064808;28;20237;-77
2021/01/01 03:25:50;;;;;;;76.18;38.08;;;;;;;;;;5067000;28;20217;-77
2021/01/01 03:28:17;;;;;;;73.70;34.58;;;;;;;;;;5068953;28;20281;-77
2021/01/01 03:30:44;;;;;;;70.20;33.58;;;;;;;;;;5069184;28;20586;-77
2021/01/01 03:33:11;;;;;;;59.40;32.95;;;;;;;;;;5065056;28;20644;-79
2021/01/01 03:35:39;;;;;;;64.07;33.78;;;;;;;;;;5050733;28;20201;-77
2021/01/01 03:38:06;;;;;;;64.57;33.03;;;;;;;;;;5051148;28;20191;-78
2021/01/01 03:40:33;;;;;;;55.33;31.65;;;;;;;;;;5051113;28;20217;-78
2021/01/01 03:43:00;;;;;;;59.08;32.20;;;;;;;;;;5051267;28;20223;-79
2021/01/01 03:45:27;;;;;;;65.57;35.33;;;;;;;;;;5064851;28;21436;-79
2021/01/01 03:47:54;;;;;;;57.03;30.25;;;;;;;;;;5062208;28;20648;-79
2021/01/01 03:50:21;;;;;;;56.95;30.40;;;;;;;;;;5048905;28;20301;-79
2021/01/01 03:52:48;;;;;;;66.50;31.10;;;;;;;;;;5048274;28;20642;-78
2021/01/01 03:55:15;;;;;;;59.05;29.08;;;;;;;;;;5046533;28;20280;-77
2021/01/01 03:57:42;;;;;;;56.83;28.55;;;;;;;;;;5043070;28;20218;-78
2021/01/01 04:00:10;;;;;;;55.72;29.45;;;;;;;;;;5051001;28;20205;-76
2021/01/01 04:02:37;;;;;;;59.08;29.83;;;;;;;;;;5049971;28;20264;-77
2021/01/01 04:05:04;;;;;;;53.35;28.90;;;;;;;;;;5051299;28;20555;-79
2021/01/01 04:07:31;;;;;;;50.85;27.90;;;;;;;;;;5062125;28;20189;-77
2021/01/01 04:09:58;;;;;;;55.08;29.48;;;;;;;;;;5066213;28;20187;-80
2021/01/01 04:12:25;;;;;;;51.88;28.15;;;;;;;;;;5067852;28;20194;-78
2021/01/01 04:14:51;;;;;;;57.05;30.60;;;;;;;;;;5050894;28;20226;-77
2021/01/01 04:17:18;;;;;;;51.22;26.48;;;;;;;;;;5053450;28;20279;-78
2021/01/01 04:19:45;;;;;;;56.15;29.95;;;;;;;;;;5054275;28;20240;-79
2021/01/01 04:22:12;;;;;;;60.85;29.67;;;;;;;;;;5054659;28;20203;-78
2021/01/01 04:24:40;;;;;;;63.20;31.02;;;;;;;;;;5055088;28;20308;-76
2021/01/01 04:27:06;;;;;;;56.60;30.02;;;;;;;;;;5055270;28;20676;-78
2021/01/01 04:29:33;;;;;;;59.10;29.50;;;;;;;;;;5064112;28;20728;-77
2021/01/01 04:32:00;;;;;;;52.92;28.80;;;;;;;;;;5070122;28;20196;-77
2021/01/01 04:34:27;;;;;;;59.55;30.50;;;;;;;;;;5051792;28;20699;-78
2021/01/01 04:36:53;;;;;;;59.78;30.30;;;;;;;;;;5052456;28;20722;-76
2021/01/01 04:39:20;;;;;;;51.38;28.98;;;;;;;;;;5052564;28;20728;-77
2021/01/01 04:41:54;;;;;;;59.83;28.80;;;;;;;;;;5053722;28;20213;-78
2021/01/01 04:44:22;;;;;;;52.53;27.23;;;;;;;;;;5054743;28;20622;-78
2021/01/01 04:46:50;;;;;;;47.00;27.50;;;;;;;;;;5054821;28;20667;-78
2021/01/01 04:49:17;;;;;;;51.72;27.98;;;;;;;;;;5054613;28;20213;-77
2021/01/01 04:51:43;;;;;;;47.50;25.35;;;;;;;;;;5062560;28;20247;-76
2021/01/01 04:54:11;;;;;;;55.40;27.08;;;;;;;;;;5068141;28;20870;-76
2021/01/01 04:56:44;;;;;;;54.08;28.20;;;;;;;;;;5071892;28;20556;-77
2021/01/01 04:59:14;;;;;;;54.70;25.98;;;;;;;;;;5056500;28;20268;-76
2021/01/01 05:01:42;;;;;;;52.45;27.85;;;;;;;;;;5052361;28;20281;-76
2021/01/01 05:04:08;;;;;;;50.80;27.92;;;;;;;;;;5052561;28;20225;-77
2021/01/01 05:06:36;;;;;;;47.83;25.80;;;;;;;;;;5054488;28;20217;-78
2021/01/01 05:09:04;;;;;;;50.00;27.48;;;;;;;;;;5054339;28;20207;-77
2021/01/01 05:11:31;;;;;;;53.35;27.48;;;;;;;;;;5054289;28;20202;-77
2021/01/01 05:13:59;;;;;;;48.17;24.67;;;;;;;;;;5059844;28;20240;-75
2021/01/01 05:16:27;;;;;;;49.25;27.10;;;;;;;;;;5067218;28;20186;-77
2021/01/01 05:18:55;;;;;;;55.17;26.70;;;;;;;;;;5052817;28;20209;-77
2021/01/01 05:21:22;;;;;;;50.80;26.00;;;;;;;;;;5052017;28;20252;-77
2021/01/01 05:23:50;;;;;;;48.60;24.83;;;;;;;;;;5051535;28;20756;-76
2021/01/01 05:26:18;;;;;;;42.40;26.05;;;;;;;;;;5051287;28;20202;-78
2021/01/01 05:28:59;;;;;;;54.60;26.65;;;;;;;;;;5053836;28;20226;-77
2021/01/01 05:31:27;;;;;;;46.20;25.27;;;;;;;;;;5052981;28;20720;-77
2021/01/01 05:33:56;;;;;;;43.60;23.30;;;;;;;;;;5054134;28;20321;-78
2021/01/01 05:36:32;;;;;;;42.55;24.95;;;;;;;;;;5061326;28;20267;-77
2021/01/01 05:38:59;;;;;;;42.65;22.33;;;;;;;;;;5066949;28;20194;-78
2021/01/01 05:41:33;;;;;;;45.03;25.70;;;;;;;;;;5070614;28;20211;-75
2021/01/01 05:44:08;;;;;;;42.05;24.35;;;;;;;;;;5051203;28;20232;-79
2021/01/01 05:46:36;;;;;;;44.35;24.42;;;;;;;;;;5051673;28;20248;-77
2021/01/01 05:49:03;;;;;;;42.63;22.08;;;;;;;;;;5052251;28;20356;-75
2021/01/01 05:51:30;;;;;;;47.72;25.85;;;;;;;;;;5053422;28;20202;-77
2021/01/01 05:54:10;;;;;;;38.70;21.70;;;;;;;;;;5053236;28;20280;-76
2021/01/01 05:56:38;;;;;;;44.13;23.20;;;;;;;;;;5052065;28;20191;-78
2021/01/01 05:59:06;;;;;;;38.10;21.95;;;;;;;;;;5062291;28;20227;-77
2021/01/01 06:01:36;;;;;;;43.30;22.92;;;;;;;;;;5067581;28;20221;-76
2021/01/01 06:04:04;;;;;;;43.35;24.52;;;;;;;;;;5070558;28;20222;-77
2021/01/01 06:06:33;;;;;;;45.03;23.88;;;;;;;;;;5070616;28;20194;-78
2021/01/01 06:09:03;;;;;;;45.78;23.42;;;;;;;;;;5071275;28;20248;-77
2021/01/01 06:11:34;;;;;;;47.90;22.85;;;;;;;;;;5071598;28;20555;-76
2021/01/01 06:14:03;;;;;;;42.72;21.48;;;;;;;;;;5073130;28;20233;-75
2021/01/01 06:16:32;;;;;;;44.70;23.75;;;;;;;;;;5073092;28;20191;-77
2021/01/01 06:19:05;;;;;;;47.80;24.00;;;;;;;;;;5072625;28;20205;-77
2021/01/01 06:21:34;;;;;;;43.83;22.70;;;;;;;;;;5068872;28;20205;-76
2021/01/01 06:24:02;;;;;;;40.25;22.08;;;;;;;;;;5066071;28;20220;-76
2021/01/01 06:26:29;;;;;;;42.17;21.90;;;;;;;;;;5070276;28;20191;-75
2021/01/01 06:28:56;;;;;;;39.55;20.35;;;;;;;;;;5070716;28;20243;-76
2021/01/01 06:31:22;;;;;;;42.33;20.45;;;;;;;;;;5070591;28;20255;-76
2021/01/01 06:33:49;;;;;;;36.85;21.00;;;;;;;;;;5052846;28;20238;-77
2021/01/01 06:36:31;;;;;;;44.88;22.88;;;;;;;;;;5052744;28;20289;-76
2021/01/01 06:38:58;;;;;;;39.13;20.85;;;;;;;;;;5051396;28;20194;-76
2021/01/01 06:41:40;;;;;;;34.17;20.45;;;;;;;;;;5051812;28;20197;-77
2021/01/01 06:44:07;;;;;;;40.47;20.42;;;;;;;;;;5061091;28;20225;-76
2021/01/01 06:46:36;;;;;;;37.10;17.67;;;;;;;;;;5067820;28;20189;-77
2021/01/01 06:49:03;;;;;;;34.97;20.65;;;;;;;;;;5069867;28;20200;-77
2021/01/01 06:51:31;;;;;;;37.00;19.15;;;;;;;;;;5068423;28;20208;-76
2021/01/01 06:54:10;;;;;;;39.50;20.27;;;;;;;;;;5048596;28;20215;-83
2021/01/01 06:56:38;;;;;;;36.95;21.20;;;;;;;;;;5050898;28;20206;-78
2021/01/01 06:59:10;;;;;;;40.67;21.15;;;;;;;;;;5050281;28;20217;-79
2021/01/01 07:01:41;;;;;;;36.15;20.20;;;;;;;;;;5051648;28;20611;-81
2021/01/01 07:04:08;;;;;;;38.58;19.40;;;;;;;;;;5051034;28;20215;-83
2021/01/01 07:06:37;;;;;;;31.15;19.45;;;;;;;;;;5062418;28;20285;-76
2021/01/01 07:09:06;;;;;;;43.17;19.27;;;;;;;;;;5066309;28;20655;-77
2021/01/01 07:11:35;;;;;;;35.58;19.63;;;;;;;;;;5069502;28;20301;-78
2021/01/01 07:14:05;;;;;;;32.92;18.45;;;;;;;;;;5069547;28;20599;-77
2021/01/01 07:16:33;;;;;;;36.30;20.05;;;;;;;;;;5069943;28;20198;-77
2021/01/01 07:19:00;;;;;;;37.15;20.40;;;;;;;;;;5070395;28;20203;-77
2021/01/01 07:21:27;;;;;;;37.22;19.95;;;;;;;;;;5072043;28;20275;-77
2021/01/01 07:23:54;;;;;;;35.92;19.27;;;;;;;;;;5072102;28;20214;-76
2021/01/01 07:26:26;;;;;;;35.15;19.75;;;;;;;;;;5071315;28;20251;-77
2021/01/01 07:28:53;;;;;;;36.88;19.63;;;;;;;;;;5067765;28;20268;-78
2021/01/01 07:31:20;;;;;;;38.90;21.10;;;;;;;;;;5066883;28;20545;-76
2021/01/01 07:33:47;;;;;;;38.30;21.20;;;;;;;;;;5068715;28;20230;-76
2021/01/01 07:36:15;;;;;;;39.70;21.35;;;;;;;;;;5065350;28;20659;-77
2021/01/01 07:38:42;;;;;;;40.08;22.20;;;;;;;;;;5049739;28;20631;-78
2021/01/01 07:41:09;;;;;;;39.55;22.10;;;;;;;;;;5050404;28;20201;-76
2021/01/01 07:43:38;;;;;;;37.13;20.23;;;;;;;;;;5051607;28;20215;-75
2021/01/01 07:46:05;;;;;;;41.85;21.73;;;;;;;;;;5051402;28;20675;-76
2021/01/01 07:48:32;;;;;;;42.97;23.45;;;;;;;;;;5050987;28;20797;-75
2021/01/01 07:50:59;;;;;;;44.15;23.48;;;;;;;;;;5058725;28;20187;-76
2021/01/01 07:53:26;;;;;;;43.50;25.13;;;;;;;;;;5065930;28;20225;-76
2021/01/01 07:55:53;;;;;;;45.17;22.35;;;;;;;;;;5068761;28;20247;-76
2021/01/01 07:58:20;;;;;;;44.35;22.88;;;;;;;;;;5058649;28;20376;-78
2021/01/01 08:00:48;;;;;;;42.05;24.65;;;;;;;;;;5049123;28;20203;-75
2021/01/01 08:03:15;;;;;;;43.65;25.30;;;;;;;;;;5047601;28;20219;-76
2021/01/01 08:05:44;;;;;;;44.67;25.15;;;;;;;;;;5051658;28;20199;-78
2021/01/01 08:08:12;;;;;;;47.20;26.80;;;;;;;;;;5049995;28;20191;-76
2021/01/01 08:10:39;;;;;;;47.65;25.65;;;;;;;;;;5051059;28;20257;-77
2021/01/01 08:13:12;;;;;;;48.50;28.08;;;;;;;;;;5056283;28;20306;-75
2021/01/01 08:15:39;;;;;;;51.20;27.88;;;;;;;;;;5065627;28;20194;-75
2021/01/01 08:18:11;;;;;;;46.92;25.80;;;;;;;;;;5068441;28;20194;-76
2021/01/01 08:20:37;;;;;;;42.50;25.40;;;;;;;;;;5060148;28;20539;-76
2021/01/01 08:23:06;;;;;;;48.60;26.63;;;;;;;;;;5048556;28;20214;-79
2021/01/01 08:25:33;;;;;;;43.20;25.80;;;;;;;;;;5048375;28;20335;-78
2021/01/01 08:28:00;;;;;;;46.80;26.83;;;;;;;;;;5051188;28;20320;-76
2021/01/01 08:30:28;;;;;;;44.45;25.48;;;;;;;;;;5050878;28;20205;-77
2021/01/01 08:32:55;;;;;;;47.67;27.50;;;;;;;;;;5050604;28;20269;-75
2021/01/01 08:35:23;;;;;;;49.92;26.83;;;;;;;;;;5056675;28;20222;-75
2021/01/01 08:37:50;;;;;;;46.63;26.52;;;;;;;;;;5065378;28;20206;-76
2021/01/01 08:40:17;;;;;;;50.92;26.60;;;;;;;;;;5068023;28;20277;-75
2021/01/01 08:42:43;;;;;;;49.15;26.92;;;;;;;;;;5047679;28;20660;-73
2021/01/01 08:45:11;;;;;;;48.78;26.23;;;;;;;;;;5047905;28;20191;-76
2021/01/01 08:47:39;;;;;;;40.60;24.80;;;;;;;;;;5047230;28;20238;-75
2021/01/01 08:50:17;;;;;;;46.15;26.80;;;;;;;;;;5057526;28;20218;-76
2021/01/01 08:52:46;;;;;;;50.72;29.13;;;;;;;;;;5063653;28;20195;-75
2021/01/01 08:55:13;;;;;;;46.38;25.98;;;;;;;;;;5046998;28;20214;-76
2021/01/01 08:57:40;;;;;;;51.63;27.55;;;;;;;;;;5048796;28;20296;-77
2021/01/01 09:00:08;;;;;;;49.72;26.90;;;;;;;;;;5048988;28;20199;-77
2021/01/01 09:02:35;;;;;;;47.95;26.88;;;;;;;;;;5053291;28;20203;-76
2021/01/01 09:05:03;;;;;;;50.42;29.48;;;;;;;;;;5053868;28;20264;-76
2021/01/01 09:07:30;;;;;;;44.63;27.38;;;;;;;;;;5054398;28;20551;-82
2021/01/01 09:09:58;;;;;;;47.60;26.60;;;;;;;;;;5053855;28;20291;-75
2021/01/01 09:12:25;;;;;;;46.83;26.92;;;;;;;;;;5060910;28;20593;-76
2021/01/01 09:14:52;;;;;;;47.92;27.52;;;;;;;;;;5067663;28;20226;-76
2021/01/01 09:17:20;;;;;;;48.53;28.30;;;;;;;;;;5070131;28;20213;-76
2021/01/01 09:19:47;;;;;;;48.80;28.10;;;;;;;;;;5058324;28;20599;-76
2021/01/01 09:22:15;;;;;;;50.50;28.17;;;;;;;;;;5051786;28;20205;-76
2021/01/01 09:24:42;;;;;;;52.85;29.45;;;;;;;;;;5050951;28;20223;-76
2021/01/01 09:27:10;;;;;;;53.10;32.78;;;;;;;;;;5052912;28;20290;-76
2021/01/01 09:29:36;;;;;;;48.72;31.10;;;;;;;;;;5054049;28;20212;-77
2021/01/01 09:32:06;;;;;;;47.42;29.20;;;;;;;;;;5053890;28;20205;-76
2021/01/01 09:34:33;;;;;;;55.65;32.38;;;;;;;;;;5057904;28;20261;-76
2021/01/01 09:37:06;;;;;;;48.63;28.65;;;;;;;;;;5068031;28;20247;-75
2021/01/01 09:39:33;;;;;;;54.13;30.42;;;;;;;;;;5070574;28;20198;-75
2021/01/01 09:42:00;;;;;;;49.38;29.73;;;;;;;;;;5071234;28;20714;-77
2021/01/01 09:44:28;;;;;;;55.85;29.05;;;;;;;;;;5064081;28;20288;-76
2021/01/01 09:46:54;;;;;;;57.95;30.80;;;;;;;;;;5050531;28;20201;-76
2021/01/01 09:49:21;;;;;;;55.13;32.25;;;;;;;;;;5059851;28;20198;-77
2021/01/01 09:51:48;;;;;;;51.13;29.80;;;;;;;;;;5067350;28;20193;-76
2021/01/01 09:54:15;;;;;;;55.55;29.23;;;;;;;;;;5064168;28;20309;-76
2021/01/01 09:56:42;;;;;;;48.35;27.27;;;;;;;;;;5051294;28;20201;-76
2021/01/01 09:59:09;;;;;;;46.58;27.90;;;;;;;;;;5051193;28;20284;-77
2021/01/01 10:01:36;;;;;;;49.47;28.33;;;;;;;;;;5051802;28;20202;-77
2021/01/01 10:04:03;;;;;;;46.17;27.65;;;;;;;;;;5052849;28;20225;-78
2021/01/01 10:06:30;;;;;;;59.42;34.17;;;;;;;;;;5052413;28;20530;-83
2021/01/01 10:08:57;;;;;;;52.55;30.25;;;;;;;;;;5055370;28;20286;-83
2021/01/01 10:11:24;;;;;;;50.30;30.40;;;;;;;;;;5057553;28;20244;-85
2021/01/01 10:13:51;;;;;;;49.67;29.33;;;;;;;;;;5069706;28;20222;-77
2021/01/01 10:16:18;;;;;;;44.38;26.48;;;;;;;;;;5071741;28;20205;-75
2021/01/01 10:18:45;;;;;;;48.13;30.13;;;;;;;;;;5072265;28;20198;-76
2021/01/01 10:21:13;;;;;;;46.65;26.67;;;;;;;;;;5072539;28;20202;-75
2021/01/01 10:23:42;;;;;;;45.78;27.77;;;;;;;;;;5071647;28;20225;-77
2021/01/01 10:26:10;;;;;;;46.85;26.20;;;;;;;;;;5073683;28;20554;-76
2021/01/01 10:28:37;;;;;;;46.65;28.20;;;;;;;;;;5073639;28;20277;-77
2021/01/01 10:31:04;;;;;;;46.88;27.00;;;;;;;;;;5073812;28;20682;-76
2021/01/01 10:33:30;;;;;;;48.47;25.45;;;;;;;;;;5072462;28;20206;-78
2021/01/01 10:35:58;;;;;;;49.85;24.95;;;;;;;;;;5069222;28;20199;-80
2021/01/01 10:38:25;;;;;;;43.92;26.30;;;;;;;;;;5070624;28;20201;-75
2021/01/01 10:40:52;;;;;;;42.42;25.33;;;;;;;;;;5071832;28;20289;-77
2021/01/01 10:43:19;;;;;;;48.97;27.80;;;;;;;;;;5071452;28;20224;-76
2021/01/01 10:45:48;;;;;;;47.00;27.35;;;;;;;;;;5050927;28;20248;-79
2021/01/01 10:48:14;;;;;;;43.85;26.63;;;;;;;;;;5053525;28;20202;-78
2021/01/01 10:50:41;;;;;;;60.97;26.33;;;;;;;;;;5053780;28;20293;-75
2021/01/01 10:53:09;;;;;;;49.25;26.23;;;;;;;;;;5053261;28;20313;-75
2021/01/01 10:55:36;;;;;;;48.00;26.13;;;;;;;;;;5054675;28;20654;-76
2021/01/01 10:58:03;;;;;;;44.65;24.92;;;;;;;;;;5067239;28;20703;-77
2021/01/01 11:00:30;;;;;;;58.90;29.13;;;;;;;;;;5069071;28;20202;-77
2021/01/01 11:02:57;;;;;;;54.55;27.58;;;;;;;;;;5071150;28;20241;-77
2021/01/01 11:05:23;;;;;;;55.20;30.35;;;;;;;;;;5071257;28;20205;-76
2021/01/01 11:07:50;;;;;;;53.42;28.70;;;;;;;;;;5071308;28;20194;-76
2021/01/01 11:10:18;;;;;;;56.05;30.23;;;;;;;;;;5072812;28;20201;-77
2021/01/01 11:12:46;;;;;;;45.65;27.02;;;;;;;;;;5072893;28;20202;-77
2021/01/01 12:19:21;;;;;;;42.97;26.02;;;;;;;;;;5072803;28;20211;-76
2021/01/01 12:22:53;;;;;;;46.08;26.85;;;;;;;;;;5065697;28;20202;-75
2021/01/01 12:25:20;;;;;;;52.88;27.33;;;;;;;;;;5063680;28;20305;-76
2021/01/01 12:27:47;;;;;;;48.08;26.60;;;;;;;;;;5045498;28;20199;-76
2021/01/01 12:30:16;;;;;;;54.25;29.02;;;;;;;;;;5047828;28;20425;-77
2021/01/01 12:32:44;;;;;;;45.15;27.42;;;;;;;;;;5048759;28;20204;-77
2021/01/01 12:35:12;;;;;;;45.08;25.27;;;;;;;;;;5051995;28;20222;-76
2021/01/01 12:37:39;;;;;;;48.80;25.63;;;;;;;;;;5054530;28;20209;-75
2021/01/01 12:40:07;;;;;;;43.60;24.10;;;;;;;;;;5064143;28;20198;-77
2021/01/01 12:42:33;;;;;;;43.78;25.23;;;;;;;;;;5070178;28;21275;-77
2021/01/01 12:45:00;;;;;;;43.60;25.08;;;;;;;;;;5070279;28;20215;-76
2021/01/01 12:47:28;;;;;;;40.90;21.50;;;;;;;;;;5053389;28;20225;-76
2021/01/01 12:50:00;;;;;;;38.35;23.38;;;;;;;;;;5053469;28;20204;-77
2021/01/01 12:52:27;;;;;;;38.90;21.98;;;;;;;;;;5054306;28;20195;-75
2021/01/01 12:54:53;;;;;;;38.35;22.90;;;;;;;;;;5055764;28;20223;-78
2021/01/01 12:57:20;;;;;;;39.55;23.52;;;;;;;;;;5056412;28;20282;-76
2021/01/01 12:59:47;;;;;;;39.60;21.50;;;;;;;;;;5055185;28;20313;-77
2021/01/01 13:02:14;;;;;;;40.35;21.75;;;;;;;;;;5063418;28;20263;-77
2021/01/01 13:04:41;;;;;;;38.50;22.25;;;;;;;;;;5071059;28;20212;-78
2021/01/01 13:07:08;;;;;;;39.53;21.45;;;;;;;;;;5072604;28;20270;-78
2021/01/01 13:09:35;;;;;;;34.38;21.20;;;;;;;;;;5072638;28;20289;-77
2021/01/01 13:12:02;;;;;;;33.10;18.77;;;;;;;;;;5073115;28;20248;-77
2021/01/01 13:14:29;;;;;;;35.22;20.65;;;;;;;;;;5055409;28;20309;-78
2021/01/01 13:16:56;;;;;;;38.97;20.48;;;;;;;;;;5055127;28;20208;-76
2021/01/01 13:19:23;;;;;;;37.47;21.08;;;;;;;;;;5055008;28;20205;-75
2021/01/01 13:21:51;;;;;;;33.45;18.90;;;;;;;;;;5055445;28;20290;-76
2021/01/01 13:24:17;;;;;;;32.30;19.83;;;;;;;;;;5060274;28;20297;-78
2021/01/01 13:26:44;;;;;;;33.35;20.77;;;;;;;;;;5070464;28;20293;-75
2021/01/01 13:29:11;;;;;;;28.55;18.27;;;;;;;;;;5071727;28;20236;-78
2021/01/01 13:31:39;;;;;;;31.15;19.95;;;;;;;;;;5072470;28;20294;-76
2021/01/01 13:34:07;;;;;;;35.80;20.73;;;;;;;;;;5071977;28;20549;-78
2021/01/01 13:36:34;;;;;;;35.20;20.10;;;;;;;;;;5072610;28;20241;-85
2021/01/01 13:39:02;;;;;;;35.53;21.27;;;;;;;;;;5075040;28;20209;-86
2021/01/01 13:41:28;;;;;;;33.50;20.25;;;;;;;;;;5062235;28;20233;-82
2021/01/01 13:43:56;;;;;;;35.08;22.08;;;;;;;;;;5066407;28;20267;-77
2021/01/01 13:46:24;;;;;;;32.72;19.58;;;;;;;;;;5072660;28;20322;-77
2021/01/01 13:48:52;;;;;;;37.55;20.67;;;;;;;;;;5067229;28;20708;-82
2021/01/01 13:51:26;;;;;;;34.78;19.02;;;;;;;;;;5071682;28;20202;-78
2021/01/01 13:53:53;;;;;;;34.00;19.42;;;;;;;;;;5064600;28;20210;-81
2021/01/01 13:56:20;;;;;;;36.80;20.50;;;;;;;;;;5072008;28;20226;-81
2021/01/01 13:58:47;;;;;;;38.97;21.48;;;;;;;;;;5067035;28;20246;-80
2021/01/01 14:01:16;;;;;;;37.28;21.05;;;;;;;;;;5062955;28;20194;-81
2021/01/01 14:03:43;;;;;;;34.13;19.42;;;;;;;;;;5069955;28;20244;-84
2021/01/01 14:06:10;;;;;;;30.55;18.25;;;;;;;;;;5063841;28;20285;-79
2021/01/01 14:08:37;;;;;;;32.67;18.45;;;;;;;;;;5050920;28;20240;-80
2021/01/01 14:11:04;;;;;;;32.60;19.83;;;;;;;;;;5062937;28;20206;-84
2021/01/01 14:13:31;;;;;;;38.47;20.38;;;;;;;;;;5060762;28;20726;-79
2021/01/01 14:15:58;;;;;;;30.25;18.58;;;;;;;;;;5053958;28;20226;-81
2021/01/01 14:18:25;;;;;;;32.55;20.10;;;;;;;;;;5053766;28;20209;-83
2021/01/01 14:20:52;;;;;;;32.75;19.60;;;;;;;;;;5054054;28;20195;-81
2021/01/01 14:23:19;;;;;;;33.97;18.98;;;;;;;;;;5062286;28;20259;-78
2021/01/01 14:25:46;;;;;;;28.77;18.95;;;;;;;;;;5069711;28;20252;-79
2021/01/01 14:28:13;;;;;;;41.53;21.35;;;;;;;;;;5066007;28;20209;-77
2021/01/01 14:30:41;;;;;;;37.30;20.55;;;;;;;;;;5071464;28;20289;-83
2021/01/01 14:33:08;;;;;;;30.08;18.50;;;;;;;;;;5071907;28;20309;-77
2021/01/01 14:35:35;;;;;;;34.03;20.52;;;;;;;;;;5072015;28;20228;-81
2021/01/01 14:38:02;;;;;;;32.25;18.40;;;;;;;;;;5073460;28;20233;-78
2021/01/01 14:40:29;;;;;;;31.30;19.55;;;;;;;;;;5072254;28;20214;-78
2021/01/01 14:42:55;;;;;;;35.13;20.23;;;;;;;;;;5071584;28;20216;-80
2021/01/01 14:45:22;;;;;;;30.92;19.25;;;;;;;;;;5060197;28;20201;-80
2021/01/01 14:47:50;;;;;;;31.63;18.08;;;;;;;;;;5068652;28;20201;-78
2021/01/01 14:50:17;;;;;;;29.65;19.00;;;;;;;;;;5068880;28;20559;-79
2021/01/01 14:52:44;;;;;;;28.40;18.60;;;;;;;;;;5069951;28;20630;-78
2021/01/01 14:55:11;;;;;;;31.98;18.45;;;;;;;;;;5069733;28;20273;-79
2021/01/01 14:57:39;;;;;;;34.35;19.85;;;;;;;;;;5070507;28;20200;-78
2021/01/01 15:00:07;;;;;;;34.13;20.70;;;;;;;;;;5068953;28;20191;-80
2021/01/01 15:02:33;;;;;;;26.25;17.20;;;;;;;;;;5065275;28;20537;-76
2021/01/01 15:05:01;;;;;;;29.52;17.95;;;;;;;;;;5058843;28;20297;-76
2021/01/01 15:07:28;;;;;;;29.85;18.30;;;;;;;;;;5069304;28;20711;-75
2021/01/01 15:09:55;;;;;;;26.95;17.85;;;;;;;;;;5071012;28;20258;-75
2021/01/01 15:12:22;;;;;;;30.00;18.55;;;;;;;;;;5070265;28;20895;-76
2021/01/01 15:14:49;;;;;;;30.02;18.95;;;;;;;;;;5072796;28;20267;-75
2021/01/01 15:17:16;;;;;;;24.60;16.17;;;;;;;;;;5072705;28;20281;-74
2021/01/01 15:19:43;;;;;;;27.80;17.25;;;;;;;;;;5067745;28;20286;-76
2021/01/01 15:22:14;;;;;;;27.27;17.10;;;;;;;;;;5066436;28;20732;-75
2021/01/01 15:24:41;;;;;;;28.70;18.88;;;;;;;;;;5068793;28;20214;-76